VYT113 EGOV-EGOV

Flight info

Callsign VYT113
Flight time N/A
Altitude 9000
Route WALES LOWER E
Aircraft TEX2/M-I/S

Departure

Time 2026-05-06 19:35
Airport Anglesey Airport (EGOV)

Arrival

Time N/A
Airport Anglesey Airport (EGOV)
Time Latitude Longitude Altitude Speed Heading
2026-05-06 19:22 53.24894 -4.54613 30 ft 0 kts 258°
2026-05-06 19:25 53.24891 -4.54637 30 ft 6 kts 262°
2026-05-06 19:25 53.24901 -4.54684 31 ft 0 kts 348°
2026-05-06 19:26 53.24947 -4.54700 31 ft 17 kts 348°
2026-05-06 19:26 53.25055 -4.54738 32 ft 16 kts 349°
2026-05-06 19:27 53.25168 -4.54774 32 ft 16 kts 348°
2026-05-06 19:27 53.25242 -4.54791 33 ft 8 kts
2026-05-06 19:27 53.25256 -4.54787 33 ft 0 kts 18°
2026-05-06 19:32 53.25257 -4.54786 33 ft 1 kts 18°
2026-05-06 19:32 53.25266 -4.54781 33 ft 0 kts 18°
2026-05-06 19:33 53.25272 -4.54777 33 ft 0 kts 27°
2026-05-06 19:33 53.25280 -4.54770 33 ft 1 kts 37°
2026-05-06 19:33 53.25291 -4.54750 33 ft 7 kts 49°
2026-05-06 19:34 53.25353 -4.54654 29 ft 10 kts 40°
2026-05-06 19:34 53.25347 -4.54574 30 ft 0 kts 130°
2026-05-06 19:34 53.25324 -4.54530 30 ft 28 kts 130°
2026-05-06 19:34 53.25051 -4.53988 33 ft 93 kts 129°
2026-05-06 19:35 53.24534 -4.52974 145 ft 139 kts 133°
2026-05-06 19:35 53.23832 -4.51598 605 ft 167 kts 131°
2026-05-06 19:35 53.23043 -4.50093 1355 ft 177 kts 133°
2026-05-06 19:35 53.22192 -4.48554 2157 ft 183 kts 133°
2026-05-06 19:36 53.21320 -4.46981 3004 ft 186 kts 134°
2026-05-06 19:36 53.20443 -4.45392 3858 ft 187 kts 135°
2026-05-06 19:36 53.19507 -4.43861 4671 ft 190 kts 136°
2026-05-06 19:36 53.18604 -4.42239 5529 ft 191 kts 135°
2026-05-06 19:37 53.17701 -4.40595 6397 ft 193 kts 135°
2026-05-06 19:37 53.16820 -4.38884 7162 ft 198 kts 132°
2026-05-06 19:37 53.15910 -4.37067 7624 ft 216 kts 129°
2026-05-06 19:37 53.15483 -4.34659 8171 ft 226 kts 85°
2026-05-06 19:38 53.16026 -4.32171 8705 ft 233 kts 64°
2026-05-06 19:38 53.16737 -4.29713 9280 ft 238 kts 63°
2026-05-06 19:38 53.17468 -4.27191 9808 ft 245 kts 63°
2026-05-06 19:38 53.18205 -4.24580 10239 ft 255 kts 64°
2026-05-06 19:39 53.18966 -4.21822 10253 ft 266 kts 64°
2026-05-06 19:39 53.19727 -4.18992 10239 ft 271 kts 65°
2026-05-06 19:39 53.20507 -4.16107 10255 ft 275 kts 64°
2026-05-06 19:39 53.21289 -4.13235 10253 ft 277 kts 64°
2026-05-06 19:40 53.22021 -4.10254 10254 ft 280 kts 73°
2026-05-06 19:40 53.22285 -4.07024 10259 ft 283 kts 89°
2026-05-06 19:40 53.22106 -4.03745 10267 ft 284 kts 97°
2026-05-06 19:40 53.21840 -4.00476 10306 ft 284 kts 98°
2026-05-06 19:41 53.21352 -3.97307 10315 ft 283 kts 119°
2026-05-06 19:41 53.20035 -3.94920 10319 ft 281 kts 141°
2026-05-06 19:41 53.18540 -3.92822 10334 ft 281 kts 142°
2026-05-06 19:41 53.17026 -3.90765 10333 ft 281 kts 142°
2026-05-06 19:42 53.15527 -3.88735 10342 ft 281 kts 142°
2026-05-06 19:42 53.14010 -3.86672 10338 ft 282 kts 142°
2026-05-06 19:42 53.12499 -3.84583 10341 ft 283 kts 142°
2026-05-06 19:42 53.10984 -3.82489 10347 ft 282 kts 142°
2026-05-06 19:43 53.09482 -3.80392 10369 ft 282 kts 141°
2026-05-06 19:43 53.07976 -3.78293 10350 ft 283 kts 141°
2026-05-06 19:43 53.06459 -3.76203 10352 ft 283 kts 142°
2026-05-06 19:43 53.04919 -3.74176 10351 ft 283 kts 144°
2026-05-06 19:44 53.03337 -3.72226 10336 ft 284 kts 144°
2026-05-06 19:44 53.01763 -3.70218 10352 ft 285 kts 143°
2026-05-06 19:44 53.00210 -3.68231 10359 ft 286 kts 143°
2026-05-06 19:44 52.98638 -3.66220 10365 ft 285 kts 144°
2026-05-06 19:45 52.97036 -3.64291 10326 ft 284 kts 146°
2026-05-06 19:45 52.95410 -3.62414 10290 ft 285 kts 147°
2026-05-06 19:45 52.93777 -3.60550 10300 ft 285 kts 147°
2026-05-06 19:45 52.92153 -3.58713 10336 ft 285 kts 147°
2026-05-06 19:46 52.90457 -3.57072 10367 ft 285 kts 172°
2026-05-06 19:46 52.88509 -3.57569 10459 ft 284 kts 195°
2026-05-06 19:46 52.86655 -3.58265 11478 ft 267 kts 195°
2026-05-06 19:46 52.84917 -3.59256 12183 ft 266 kts 209°
2026-05-06 19:47 52.83266 -3.60669 12631 ft 276 kts 211°
2026-05-06 19:47 52.81576 -3.62227 13197 ft 279 kts 213°
2026-05-06 19:47 52.80464 -3.64660 13930 ft 268 kts 261°
2026-05-06 19:47 52.80957 -3.67529 14521 ft 271 kts 311°
2026-05-06 19:48 52.82597 -3.69140 15048 ft 279 kts 332°
2026-05-06 19:48 52.84487 -3.69772 15357 ft 287 kts
2026-05-06 19:48 52.86499 -3.69624 15359 ft 292 kts
2026-05-06 19:48 52.88545 -3.69436 15165 ft 305 kts
2026-05-06 19:49 52.90689 -3.69269 15784 ft 199 kts 359°
2026-05-06 19:49 52.90274 -3.69519 18137 ft 101 kts 195°
2026-05-06 19:49 52.91600 -3.68467 14862 ft 338 kts 22°
2026-05-06 19:49 52.93536 -3.69157 14886 ft 325 kts 281°
2026-05-06 19:50 52.92212 -3.71941 14818 ft 340 kts 216°
2026-05-06 19:50 52.90360 -3.73954 16329 ft 274 kts 195°
2026-05-06 19:50 52.89903 -3.72216 13801 ft 362 kts
2026-05-06 19:50 52.92089 -3.73020 15413 ft 301 kts 341°
2026-05-06 19:51 52.94108 -3.74028 15767 ft 311 kts 341°
2026-05-06 19:51 52.96233 -3.75095 15767 ft 324 kts 340°
2026-05-06 19:51 52.97560 -3.77419 15918 ft 316 kts 263°
2026-05-06 19:51 52.98684 -3.79923 15864 ft 319 kts 349°
2026-05-06 19:52 53.00419 -3.80304 16123 ft 195 kts 348°
2026-05-06 19:52 53.01489 -3.80518 16256 ft 120 kts 340°
2026-05-06 19:52 53.02675 -3.81036 14576 ft 240 kts 319°
2026-05-06 19:52 53.02394 -3.83312 14486 ft 269 kts 197°
2026-05-06 19:53 53.00489 -3.82520 14429 ft 303 kts 160°
2026-05-06 19:53 52.98475 -3.81228 14483 ft 314 kts 162°
2026-05-06 19:53 52.96408 -3.80017 14514 ft 316 kts 164°
2026-05-06 19:53 52.94336 -3.78897 14517 ft 316 kts 166°
2026-05-06 19:54 52.92155 -3.78521 14528 ft 318 kts 180°
2026-05-06 19:54 52.90789 -3.76286 14548 ft 330 kts 70°
2026-05-06 19:54 52.92727 -3.75069 14517 ft 325 kts 358°
2026-05-06 19:54 52.94985 -3.74995 14508 ft 323 kts 359°
2026-05-06 19:55 52.97235 -3.74912 14535 ft 323 kts 359°
2026-05-06 19:55 52.98310 -3.74958 18848 ft 39 kts 308°
2026-05-06 19:55 52.98545 -3.75416 18375 ft 15 kts 86°
2026-05-06 19:55 52.97660 -3.73197 15472 ft 326 kts 143°
2026-05-06 19:56 52.95985 -3.73968 15570 ft 287 kts 253°
2026-05-06 19:56 52.95430 -3.77114 15505 ft 285 kts 255°
2026-05-06 19:56 52.94851 -3.79803 13228 ft 46 kts 151°
2026-05-06 19:56 52.94647 -3.76416 11404 ft 273 kts 94°
2026-05-06 19:57 52.94781 -3.73654 13477 ft 243 kts 53°
2026-05-06 19:57 52.95882 -3.71276 13324 ft 277 kts 49°
2026-05-06 19:57 52.97023 -3.68537 13381 ft 302 kts 81°
2026-05-06 19:57 52.95831 -3.66098 13493 ft 306 kts 176°
2026-05-06 19:58 52.93796 -3.67078 13528 ft 314 kts 205°
2026-05-06 19:58 52.91753 -3.68535 13529 ft 325 kts 206°
2026-05-06 19:58 52.89693 -3.70054 13533 ft 331 kts 206°
2026-05-06 19:58 52.87589 -3.71686 13511 ft 337 kts 208°
2026-05-06 19:59 52.85529 -3.73579 13518 ft 340 kts 215°
2026-05-06 19:59 52.83994 -3.76403 13498 ft 329 kts 248°
2026-05-06 19:59 52.83857 -3.80024 13525 ft 315 kts 281°
2026-05-06 19:59 52.84381 -3.83501 13523 ft 308 kts 285°
2026-05-06 20:00 52.84951 -3.86888 13505 ft 304 kts 285°
2026-05-06 20:00 52.85550 -3.90228 13492 ft 301 kts 287°
2026-05-06 20:00 52.86151 -3.93532 13489 ft 299 kts 286°
2026-05-06 20:00 52.86744 -3.96763 13482 ft 297 kts 287°
2026-05-06 20:01 52.87355 -4.00017 13484 ft 295 kts 287°
2026-05-06 20:01 52.87968 -4.03239 13483 ft 292 kts 287°
2026-05-06 20:01 52.88589 -4.06426 13484 ft 290 kts 288°
2026-05-06 20:01 52.89232 -4.09585 13484 ft 289 kts 288°
2026-05-06 20:02 52.89862 -4.12715 13051 ft 276 kts 288°
2026-05-06 20:02 52.90451 -4.15609 11651 ft 275 kts 288°
2026-05-06 20:02 52.91050 -4.18591 10453 ft 270 kts 288°
2026-05-06 20:02 52.91610 -4.21514 9283 ft 263 kts 287°
2026-05-06 20:03 52.92146 -4.24336 8025 ft 258 kts 283°
2026-05-06 20:03 52.91677 -4.26952 6895 ft 246 kts 219°